createdAt,value
2022-10-06T00:01:35.192Z,101921.53
2022-10-06T00:04:02.968Z,101920.66
2022-10-06T00:06:30.658Z,101927.81
2022-10-06T00:08:58.350Z,101935.88
2022-10-06T00:11:26.106Z,101938.63
2022-10-06T00:13:53.996Z,101943.22
2022-10-06T00:16:23.471Z,101946.84
2022-10-06T00:18:52.568Z,101954.94
2022-10-06T00:21:20.338Z,101958.59
2022-10-06T00:23:47.996Z,101964.06
2022-10-06T00:26:17.087Z,101975.81
2022-10-06T00:28:45.477Z,101974.03
2022-10-06T00:31:13.336Z,101983.94
2022-10-06T00:33:41.421Z,101990.28
2022-10-06T00:36:10.766Z,101999.25
2022-10-06T00:38:38.459Z,101983.16
2022-10-06T00:41:06.385Z,101994.00
2022-10-06T00:43:46.689Z,102004.75
2022-10-06T00:46:21.511Z,101994.00
2022-10-06T00:48:53.825Z,102009.28
2022-10-06T00:51:23.796Z,102014.69
2022-10-06T00:53:52.025Z,102021.91
2022-10-06T00:56:20.054Z,102025.50
2022-10-06T00:58:47.782Z,102036.28
2022-10-06T01:01:15.575Z,102036.31
2022-10-06T01:03:48.052Z,102037.25
2022-10-06T01:06:15.604Z,102039.97
2022-10-06T01:08:45.542Z,102041.81
2022-10-06T01:11:14.361Z,102048.94
2022-10-06T01:13:45.459Z,102051.63
2022-10-06T01:16:19.420Z,102052.56
2022-10-06T01:18:48.949Z,102052.59
2022-10-06T01:21:24.095Z,102053.50
2022-10-06T01:23:53.746Z,102061.56
2022-10-06T01:26:24.521Z,102058.88
2022-10-06T01:28:52.642Z,102061.56
2022-10-06T01:31:20.702Z,102065.13
2022-10-06T01:33:52.792Z,102075.03
2022-10-06T01:36:20.736Z,102075.03
2022-10-06T01:38:48.584Z,102076.84
2022-10-06T01:41:17.664Z,102087.63
2022-10-06T01:43:45.371Z,102081.38
2022-10-06T01:46:13.133Z,102085.00
2022-10-06T01:48:40.955Z,102083.22
2022-10-06T01:51:09.288Z,102088.59
2022-10-06T01:53:37.133Z,102086.84
2022-10-06T01:56:04.860Z,102079.66
2022-10-06T01:58:34.400Z,102085.94
2022-10-06T02:01:05.973Z,102099.38
2022-10-06T02:03:35.360Z,102099.34
2022-10-06T02:06:03.331Z,102104.75
2022-10-06T02:08:31.863Z,102105.66
2022-10-06T02:10:59.806Z,102111.94
2022-10-06T02:13:27.959Z,102109.22
2022-10-06T02:15:58.845Z,102126.28
2022-10-06T02:18:27.018Z,102129.88
2022-10-06T02:20:55.722Z,102133.44
2022-10-06T02:23:23.406Z,102141.50
2022-10-06T02:25:51.113Z,102143.31
2022-10-06T02:28:18.835Z,102144.22
2022-10-06T02:30:46.617Z,102146.03
2022-10-06T02:33:15.693Z,102144.22
2022-10-06T02:35:43.962Z,102154.09
2022-10-06T02:38:11.679Z,102160.34
2022-10-06T02:40:39.409Z,102159.47
2022-10-06T02:43:07.172Z,102173.84
2022-10-06T02:45:34.917Z,102171.16
2022-10-06T02:48:02.627Z,102172.03
2022-10-06T02:50:32.030Z,102169.34
2022-10-06T02:52:59.771Z,102179.22
2022-10-06T02:55:27.606Z,102189.06
2022-10-06T02:57:56.161Z,102190.88
2022-10-06T03:00:24.023Z,102192.66
2022-10-06T03:02:51.760Z,102191.78
2022-10-06T03:05:19.516Z,102198.03
2022-10-06T03:07:48.619Z,102206.97
2022-10-06T03:10:16.563Z,102220.44
2022-10-06T03:12:44.448Z,102207.88
2022-10-06T03:15:12.406Z,102214.19
2022-10-06T03:17:40.142Z,102216.88
2022-10-06T03:20:09.304Z,102228.53
2022-10-06T03:22:37.117Z,102236.59
2022-10-06T03:25:07.003Z,102238.38
2022-10-06T03:27:34.728Z,102233.88
2022-10-06T03:30:03.518Z,102235.69
2022-10-06T03:32:31.201Z,102241.06
2022-10-06T03:34:58.898Z,102242.81
2022-10-06T03:37:26.954Z,102258.06
2022-10-06T03:39:54.690Z,102268.81
2022-10-06T03:42:23.929Z,102268.81
2022-10-06T03:44:51.691Z,102263.44
2022-10-06T03:47:19.878Z,102274.19
2022-10-06T03:49:47.693Z,102275.06
2022-10-06T03:52:15.431Z,102280.44
2022-10-06T03:54:43.248Z,102283.13
2022-10-06T03:57:10.973Z,102293.88
2022-10-06T03:59:40.036Z,102299.25
2022-10-06T04:02:07.959Z,102291.19
2022-10-06T04:04:35.706Z,102295.66
2022-10-06T04:07:03.996Z,102307.31
2022-10-06T04:09:34.139Z,102306.38
2022-10-06T04:12:01.848Z,102317.13
2022-10-06T04:14:29.534Z,102320.75
2022-10-06T04:16:59.330Z,102321.63
2022-10-06T04:19:27.267Z,102326.13
2022-10-06T04:21:55.724Z,102327.88
2022-10-06T04:24:23.430Z,102336.84
2022-10-06T04:26:52.327Z,102339.53
2022-10-06T04:29:20.619Z,102346.69
2022-10-06T04:31:50.464Z,102345.75
2022-10-06T04:34:20.974Z,102358.31
2022-10-06T04:36:48.713Z,102364.56
2022-10-06T04:39:16.477Z,102360.97
2022-10-06T04:41:47.286Z,102365.41
2022-10-06T04:44:15.249Z,102369.03
2022-10-06T04:46:44.557Z,102374.34
2022-10-06T04:49:18.943Z,102377.94
2022-10-06T04:51:55.959Z,102382.41
2022-10-06T04:54:23.778Z,102382.38
2022-10-06T04:56:51.558Z,102382.38
2022-10-06T04:59:19.302Z,102393.13
2022-10-06T05:01:47.109Z,102397.59
2022-10-06T05:04:14.936Z,102402.97
2022-10-06T05:06:43.595Z,102402.06
2022-10-06T05:09:14.727Z,102401.16
2022-10-06T05:11:42.822Z,102410.09
2022-10-06T05:14:10.532Z,102419.00
2022-10-06T05:16:38.620Z,102422.53
2022-10-06T05:19:06.673Z,102427.88
2022-10-06T05:21:34.745Z,102432.31
2022-10-06T05:24:03.479Z,102432.28
2022-10-06T05:26:34.418Z,102434.97
2022-10-06T05:29:02.797Z,102438.53
2022-10-06T05:31:32.021Z,102442.09
2022-10-06T05:34:00.829Z,102448.31
2022-10-06T05:36:30.843Z,102455.47
2022-10-06T05:38:59.532Z,102451.00
2022-10-06T05:41:28.802Z,102458.13
2022-10-06T05:43:58.968Z,102467.03
2022-10-06T05:46:28.673Z,102475.06
2022-10-06T05:48:57.962Z,102473.25
2022-10-06T05:51:30.641Z,102476.84
2022-10-06T05:53:59.111Z,102481.28
2022-10-06T05:56:28.130Z,102489.34
2022-10-06T05:58:58.564Z,102489.31
2022-10-06T06:01:28.273Z,102497.38
2022-10-06T06:03:59.381Z,102502.72
2022-10-06T06:06:28.878Z,102503.63
2022-10-06T06:08:59.276Z,102508.97
2022-10-06T06:11:27.806Z,102508.09
2022-10-06T06:13:59.111Z,102507.22
2022-10-06T06:16:26.809Z,102508.09
2022-10-06T06:18:54.511Z,102517.94
2022-10-06T06:21:22.235Z,102521.53
2022-10-06T06:23:50.812Z,102526.00
2022-10-06T06:26:23.444Z,102532.25
2022-10-06T06:28:51.842Z,102530.50
2022-10-06T06:31:23.259Z,102533.22
2022-10-06T06:33:55.073Z,102537.72
2022-10-06T06:36:24.983Z,102543.09
2022-10-06T06:38:54.473Z,102549.38
2022-10-06T06:41:24.327Z,102550.25
2022-10-06T06:43:52.786Z,102552.06
2022-10-06T06:46:25.014Z,102563.75
2022-10-06T06:48:52.885Z,102560.19
2022-10-06T06:51:23.923Z,102565.59
2022-10-06T06:53:52.573Z,102574.56
2022-10-06T06:56:21.827Z,102576.38
2022-10-06T06:58:50.409Z,102584.50
2022-10-06T07:01:21.674Z,102590.78
2022-10-06T07:03:58.403Z,102589.94
2022-10-06T07:06:29.250Z,102590.84
2022-10-06T07:08:58.694Z,102598.03
2022-10-06T07:11:28.104Z,102601.63
2022-10-06T07:13:58.669Z,102604.38
2022-10-06T07:16:45.939Z,102613.34
2022-10-06T07:19:32.407Z,102621.44
2022-10-06T07:22:19.993Z,102620.56
2022-10-06T07:25:05.833Z,102625.09
2022-10-06T07:27:36.328Z,102626.03
2022-10-06T07:30:04.200Z,102632.31
2022-10-06T07:32:33.876Z,102633.25
2022-10-06T07:35:03.060Z,102647.63
2022-10-06T07:37:30.878Z,102640.47
2022-10-06T07:39:58.693Z,102647.69
2022-10-06T07:42:26.365Z,102652.13
2022-10-06T07:45:07.968Z,102661.13
2022-10-06T07:47:38.250Z,102666.53
2022-10-06T07:50:06.884Z,102666.59
2022-10-06T07:52:39.157Z,102673.81
2022-10-06T07:55:07.344Z,102675.56
2022-10-06T07:57:35.767Z,102680.06
2022-10-06T08:00:07.122Z,102680.13
2022-10-06T08:02:36.011Z,102686.41
2022-10-06T08:05:07.115Z,102690.00
2022-10-06T08:07:35.260Z,102695.47
2022-10-06T08:10:03.400Z,102691.03
2022-10-06T08:12:40.014Z,102687.47
2022-10-06T08:15:11.341Z,102689.25
2022-10-06T08:17:39.668Z,102691.13
2022-10-06T08:20:11.289Z,102692.06
2022-10-06T08:22:39.964Z,102696.56
2022-10-06T08:25:10.056Z,102703.75
2022-10-06T08:27:40.361Z,102708.28
2022-10-06T08:30:09.154Z,102711.84
2022-10-06T08:32:37.365Z,102714.53
2022-10-06T08:35:05.500Z,102718.16
2022-10-06T08:37:34.578Z,102722.66
2022-10-06T08:40:02.318Z,102730.72
2022-10-06T08:42:39.653Z,102722.66
2022-10-06T08:45:15.621Z,102729.84
2022-10-06T08:47:51.833Z,102728.94
2022-10-06T08:50:21.302Z,102738.84
2022-10-06T08:53:01.219Z,102737.09
2022-10-06T08:55:36.250Z,102738.00
2022-10-06T08:58:34.265Z,102733.53
2022-10-06T09:01:15.205Z,102738.03
2022-10-06T09:03:47.300Z,102742.53
2022-10-06T09:06:23.875Z,102742.56
2022-10-06T09:08:56.456Z,102738.09
2022-10-06T09:11:47.569Z,102747.97
2022-10-06T09:14:20.991Z,102747.97
2022-10-06T09:16:53.678Z,102755.19
2022-10-06T09:19:29.972Z,102758.75
2022-10-06T09:22:02.294Z,102757.88
2022-10-06T09:24:37.151Z,102761.47
2022-10-06T09:27:17.981Z,102772.22
2022-10-06T09:29:48.345Z,102774.03
2022-10-06T09:32:16.382Z,102772.31
2022-10-06T09:34:48.036Z,102771.41
2022-10-06T09:37:15.898Z,102786.69
2022-10-06T09:39:48.214Z,102783.09
2022-10-06T09:42:20.252Z,102784.94
2022-10-06T09:44:57.085Z,102779.53
2022-10-06T09:47:36.588Z,102791.22
2022-10-06T09:50:14.489Z,102791.22
2022-10-06T09:52:43.684Z,102785.81
2022-10-06T09:55:14.642Z,102786.72
2022-10-06T09:57:50.108Z,102785.81
2022-10-06T10:00:28.060Z,102784.03
2022-10-06T10:02:59.508Z,102788.50
2022-10-06T10:05:29.162Z,102779.53
2022-10-06T10:08:09.999Z,102785.78
2022-10-06T10:10:40.000Z,102795.69
2022-10-06T10:13:20.065Z,102791.19
2022-10-06T10:15:57.416Z,102799.28
2022-10-06T10:18:28.129Z,102793.84
2022-10-06T10:20:59.248Z,102790.25
2022-10-06T10:23:31.959Z,102793.88
2022-10-06T10:26:27.491Z,102801.94
2022-10-06T10:29:08.017Z,102801.03
2022-10-06T10:31:48.192Z,102797.44
2022-10-06T10:34:25.631Z,102796.56
2022-10-06T10:36:57.601Z,102792.94
2022-10-06T10:39:33.236Z,102791.09
2022-10-06T10:42:06.379Z,102800.00
2022-10-06T10:44:38.585Z,102793.63
2022-10-06T10:47:16.305Z,102800.78
2022-10-06T10:49:52.048Z,102808.88
2022-10-06T10:52:25.828Z,102799.94
2022-10-06T10:55:04.375Z,102806.28
2022-10-06T10:57:38.498Z,102810.88
2022-10-06T11:00:08.615Z,102811.84
2022-10-06T11:02:38.316Z,102809.13
2022-10-06T11:05:16.084Z,102809.13
2022-10-06T11:07:50.043Z,102807.31
2022-10-06T11:10:23.090Z,102803.69
2022-10-06T11:13:04.703Z,102794.66
2022-10-06T11:15:45.831Z,102806.31
2022-10-06T11:18:25.799Z,102804.47
2022-10-06T11:20:58.616Z,102805.38
2022-10-06T11:23:40.588Z,102806.31
2022-10-06T11:26:24.550Z,102794.53
2022-10-06T11:29:00.432Z,102798.09
2022-10-06T11:31:35.384Z,102801.72
2022-10-06T11:34:06.309Z,102793.56
2022-10-06T11:36:42.526Z,102808.81
2022-10-06T11:39:21.445Z,102794.34
2022-10-06T11:41:53.560Z,102808.69
2022-10-06T11:44:33.499Z,102796.09
2022-10-06T11:47:06.139Z,102798.81
2022-10-06T11:49:49.399Z,102803.34
2022-10-06T11:52:37.344Z,102797.00
2022-10-06T11:55:14.698Z,102801.50
2022-10-06T11:58:23.568Z,102791.59
2022-10-06T12:00:55.087Z,102792.53
2022-10-06T12:04:06.462Z,102790.69
2022-10-06T12:06:55.115Z,102788.88
2022-10-06T12:09:52.354Z,102787.03
2022-10-06T12:13:31.888Z,102784.34
2022-10-06T12:19:16.722Z,102780.66
2022-10-06T12:21:54.490Z,102781.50
2022-10-06T12:24:30.671Z,102772.44
2022-10-06T12:27:30.988Z,102781.44
2022-10-06T12:30:04.379Z,102783.25
2022-10-06T12:32:46.586Z,102775.13
2022-10-06T12:35:29.925Z,102767.00
2022-10-06T12:38:00.488Z,102776.84
2022-10-06T12:40:59.392Z,102768.72
2022-10-06T12:43:57.136Z,102766.91
2022-10-06T12:46:40.222Z,102777.81
2022-10-06T12:49:35.387Z,102766.16
2022-10-06T12:52:18.529Z,102768.84
2022-10-06T12:54:59.156Z,102768.84
2022-10-06T12:57:30.687Z,102767.88
2022-10-06T12:59:58.919Z,102767.03
2022-10-06T13:02:28.811Z,102767.94
2022-10-06T13:05:00.673Z,102768.78
2022-10-06T13:07:33.221Z,102764.19
2022-10-06T13:10:19.614Z,102769.53
2022-10-06T13:12:50.251Z,102765.91
2022-10-06T13:15:22.301Z,102764.06
2022-10-06T13:17:53.261Z,102760.50
2022-10-06T13:20:27.093Z,102765.88
2022-10-06T13:23:01.477Z,102755.06
2022-10-06T13:25:47.621Z,102750.50
2022-10-06T13:28:48.859Z,102747.81
2022-10-06T13:31:23.052Z,102750.47
2022-10-06T13:36:23.719Z,102751.38
2022-10-06T13:38:53.319Z,102747.81
2022-10-06T13:41:27.962Z,102745.13
2022-10-06T13:44:03.499Z,102736.13
2022-10-06T13:46:39.047Z,102738.81
2022-10-06T13:49:17.915Z,102749.66
2022-10-06T13:51:51.586Z,102745.22
2022-10-06T13:54:29.498Z,102747.06
2022-10-06T13:56:58.550Z,102752.44
2022-10-06T13:59:38.404Z,102746.97
2022-10-06T14:02:26.505Z,102744.34
2022-10-06T14:05:23.515Z,102741.66
2022-10-06T14:07:52.620Z,102751.56
2022-10-06T14:10:28.081Z,102754.25
2022-10-06T14:12:56.347Z,102750.69
2022-10-06T14:15:27.138Z,102748.03
2022-10-06T14:17:57.256Z,102740.81
2022-10-06T14:20:55.075Z,102745.25
2022-10-06T14:23:43.924Z,102742.50
2022-10-06T14:26:15.351Z,102738.91
2022-10-06T14:28:47.381Z,102744.28
2022-10-06T14:31:15.934Z,102746.06
2022-10-06T14:33:44.285Z,102741.63
2022-10-06T14:36:19.091Z,102744.41
2022-10-06T14:38:51.321Z,102738.09
2022-10-06T14:41:24.714Z,102734.50
2022-10-06T14:43:55.760Z,102744.41
2022-10-06T14:46:24.745Z,102744.41
2022-10-06T14:48:52.936Z,102743.53
2022-10-06T14:51:22.234Z,102734.53
2022-10-06T14:53:54.008Z,102739.97
2022-10-06T14:56:24.486Z,102730.06
2022-10-06T14:58:52.947Z,102738.16
2022-10-06T15:01:24.568Z,102740.84
2022-10-06T15:03:52.596Z,102741.78
2022-10-06T15:06:37.967Z,102738.19
2022-10-06T15:09:06.741Z,102738.22
2022-10-06T15:11:36.479Z,102733.75
2022-10-06T15:14:05.105Z,102740.13
2022-10-06T15:16:34.590Z,102738.34
2022-10-06T15:19:04.517Z,102741.09
2022-10-06T15:21:33.098Z,102735.69
2022-10-06T15:24:02.623Z,102737.50
2022-10-06T15:26:49.017Z,102740.19
2022-10-06T15:29:18.296Z,102730.28
2022-10-06T15:31:48.179Z,102729.44
2022-10-06T15:34:16.338Z,102734.88
2022-10-06T15:36:44.683Z,102719.56
2022-10-06T15:39:14.250Z,102729.50
2022-10-06T15:41:44.142Z,102725.00
2022-10-06T15:44:13.338Z,102728.63
2022-10-06T15:46:43.974Z,102725.94
2022-10-06T15:49:13.511Z,102729.56
2022-10-06T15:51:47.418Z,102729.59
2022-10-06T15:54:19.110Z,102726.91
2022-10-06T15:56:47.476Z,102723.34
2022-10-06T15:59:15.840Z,102727.84
2022-10-06T16:01:46.869Z,102726.09
2022-10-06T16:04:23.873Z,102726.09
2022-10-06T16:06:55.319Z,102726.13
2022-10-06T16:09:25.121Z,102727.97
2022-10-06T16:11:53.889Z,102727.97
2022-10-06T16:14:21.825Z,102718.09
2022-10-06T16:16:51.711Z,102732.53
2022-10-06T16:19:20.697Z,102719.94
2022-10-06T16:21:49.680Z,102725.34
2022-10-06T16:24:17.985Z,102719.09
2022-10-06T16:26:46.924Z,102725.41
2022-10-06T16:29:14.912Z,102725.41
2022-10-06T16:31:42.969Z,102718.22
2022-10-06T16:34:12.686Z,102728.13
2022-10-06T16:36:40.834Z,102731.78
2022-10-06T16:39:13.060Z,102729.94
2022-10-06T16:41:40.873Z,102725.44
2022-10-06T16:44:08.617Z,102730.88
2022-10-06T16:46:36.905Z,102725.47
2022-10-06T16:49:05.564Z,102731.78
2022-10-06T16:51:36.923Z,102732.72
2022-10-06T16:54:06.349Z,102739.03
2022-10-06T16:56:35.789Z,102738.13
2022-10-06T16:59:06.682Z,102742.66
2022-10-06T17:01:36.361Z,102739.03
2022-10-06T17:04:07.442Z,102738.16
2022-10-06T17:06:39.077Z,102744.44
2022-10-06T17:09:08.546Z,102732.78
2022-10-06T17:11:36.928Z,102735.47
2022-10-06T17:14:06.309Z,102733.66
2022-10-06T17:16:36.398Z,102740.88
2022-10-06T17:19:04.882Z,102735.50
2022-10-06T17:21:45.477Z,102732.78
2022-10-06T17:24:17.522Z,102738.16
2022-10-06T17:26:47.257Z,102749.84
2022-10-06T17:29:18.151Z,102743.56
2022-10-06T17:31:46.659Z,102742.66
2022-10-06T17:34:20.313Z,102739.03
2022-10-06T17:36:50.976Z,102736.31
2022-10-06T17:39:22.203Z,102746.22
2022-10-06T17:41:52.362Z,102745.31
2022-10-06T17:44:23.738Z,102740.81
2022-10-06T17:46:53.795Z,102739.91
2022-10-06T17:49:23.742Z,102733.63
2022-10-06T17:51:53.310Z,102736.31
2022-10-06T17:54:24.160Z,102738.09
2022-10-06T17:56:54.126Z,102738.97
2022-10-06T17:59:23.644Z,102738.97
2022-10-06T18:01:52.154Z,102735.41
2022-10-06T18:04:20.646Z,102741.66
2022-10-06T18:06:48.782Z,102745.25
2022-10-06T18:09:17.035Z,102747.06
2022-10-06T18:11:48.229Z,102735.34
2022-10-06T18:14:17.767Z,102743.44
2022-10-06T18:16:49.037Z,102740.75
2022-10-06T18:19:25.307Z,102735.34
2022-10-06T18:21:54.060Z,102742.53
2022-10-06T18:24:23.111Z,102747.94
2022-10-06T18:26:54.079Z,102738.03
2022-10-06T18:29:23.243Z,102742.50
2022-10-06T18:31:52.449Z,102738.03
2022-10-06T18:37:08.362Z,102733.53
2022-10-06T18:39:36.211Z,102737.09
2022-10-06T18:42:05.711Z,102735.28
2022-10-06T18:44:53.741Z,102731.72
2022-10-06T18:47:39.185Z,102744.25
2022-10-06T18:50:07.833Z,102744.22
2022-10-06T18:52:35.556Z,102739.72
2022-10-06T18:55:03.219Z,102737.03
2022-10-06T18:57:32.560Z,102738.78
2022-10-06T19:00:00.176Z,102735.22
2022-10-06T19:02:27.930Z,102743.28
2022-10-06T19:04:55.635Z,102739.72
2022-10-06T19:07:23.693Z,102743.28
2022-10-06T19:09:51.510Z,102744.16
2022-10-06T19:12:19.140Z,102740.59
2022-10-06T19:14:48.171Z,102743.28
2022-10-06T19:17:16.914Z,102750.41
2022-10-06T19:19:46.220Z,102751.31
2022-10-06T19:22:16.174Z,102747.69
2022-10-06T19:24:48.565Z,102740.50
2022-10-06T19:27:17.612Z,102749.44
2022-10-06T19:29:51.450Z,102747.66
2022-10-06T19:32:22.453Z,102744.94
2022-10-06T19:34:50.244Z,102751.22
2022-10-06T19:37:17.931Z,102743.16
2022-10-06T19:39:50.096Z,102753.88
2022-10-06T19:42:37.516Z,102753.88
2022-10-06T19:45:08.559Z,102746.66
2022-10-06T19:47:36.608Z,102744.84
2022-10-06T19:50:11.704Z,102741.22
2022-10-06T19:52:40.671Z,102743.00
2022-10-06T19:55:08.525Z,102744.75
2022-10-06T19:57:36.203Z,102738.47
2022-10-06T20:00:04.885Z,102742.03
2022-10-06T20:02:35.570Z,102735.75
2022-10-06T20:05:07.107Z,102742.00
2022-10-06T20:07:34.806Z,102740.16
2022-10-06T20:10:03.080Z,102742.84
2022-10-06T20:12:33.523Z,102739.22
2022-10-06T20:15:01.248Z,102742.75
2022-10-06T20:17:29.080Z,102749.84
2022-10-06T20:19:58.667Z,102748.94
2022-10-06T20:22:26.794Z,102748.00
2022-10-06T20:24:54.695Z,102747.97
2022-10-06T20:27:22.361Z,102749.75
2022-10-06T20:29:50.235Z,102749.75
2022-10-06T20:32:17.942Z,102739.84
2022-10-06T20:34:45.653Z,102745.13
2022-10-06T20:37:14.727Z,102744.19
2022-10-06T20:39:59.840Z,102739.69
2022-10-06T20:42:27.964Z,102745.00
2022-10-06T20:44:55.575Z,102744.97
2022-10-06T20:47:23.298Z,102748.53
2022-10-06T20:49:55.054Z,102749.38
2022-10-06T20:52:25.401Z,102740.34
2022-10-06T20:54:53.162Z,102739.38
2022-10-06T20:57:20.884Z,102735.78
2022-10-06T20:59:49.060Z,102731.19
2022-10-06T21:02:16.756Z,102731.16
2022-10-06T21:04:45.061Z,102733.75
2022-10-06T21:07:12.747Z,102733.69
2022-10-06T21:09:41.815Z,102732.72
2022-10-06T21:12:09.660Z,102731.78
2022-10-06T21:14:37.436Z,102733.41
2022-10-06T21:17:05.250Z,102734.25
2022-10-06T21:19:37.827Z,102727.94
2022-10-06T21:22:06.432Z,102732.41
2022-10-06T21:24:34.064Z,102731.47
2022-10-06T21:27:03.122Z,102730.53
2022-10-06T21:29:30.748Z,102717.06
2022-10-06T21:31:58.343Z,102726.81
2022-10-06T21:34:26.679Z,102725.84
2022-10-06T21:36:54.287Z,102723.06
2022-10-06T21:39:21.876Z,102722.13
2022-10-06T21:41:49.512Z,102721.25
2022-10-06T21:44:19.498Z,102714.06
2022-10-06T21:46:49.496Z,102708.66
2022-10-06T21:49:18.959Z,102707.72
2022-10-06T21:51:48.615Z,102711.22
2022-10-06T21:54:16.702Z,102705.81
2022-10-06T21:56:44.700Z,102698.63
2022-10-06T21:59:13.014Z,102702.16
2022-10-06T22:01:43.992Z,102697.69
2022-10-06T22:04:12.897Z,102697.56
2022-10-06T22:06:41.285Z,102692.19
2022-10-06T22:09:11.976Z,102688.56
2022-10-06T22:11:40.694Z,102681.41
2022-10-06T22:14:11.140Z,102677.78
2022-10-06T22:16:39.594Z,102677.72
2022-10-06T22:19:10.716Z,102677.69
2022-10-06T22:21:40.247Z,102674.94
2022-10-06T22:24:09.844Z,102674.88
2022-10-06T22:26:38.800Z,102670.38
2022-10-06T22:29:08.336Z,102671.25
2022-10-06T22:31:39.353Z,102677.47
2022-10-06T22:34:10.275Z,102670.22
2022-10-06T22:36:37.970Z,102673.75
2022-10-06T22:39:06.091Z,102675.47
2022-10-06T22:41:33.834Z,102670.09
2022-10-06T22:44:01.636Z,102662.00
2022-10-06T22:46:34.113Z,102667.28
2022-10-06T22:49:02.128Z,102661.94
2022-10-06T22:51:31.261Z,102667.28
2022-10-06T22:54:00.517Z,102651.19
2022-10-06T22:56:29.958Z,102655.63
2022-10-06T22:58:59.393Z,102648.53
2022-10-06T23:01:28.215Z,102647.59
2022-10-06T23:03:56.667Z,102649.38
2022-10-06T23:06:24.790Z,102635.09
2022-10-06T23:08:53.856Z,102637.69
2022-10-06T23:11:23.159Z,102637.53
2022-10-06T23:13:52.863Z,102634.84
2022-10-06T23:16:21.319Z,102629.50
2022-10-06T23:18:49.870Z,102626.75
2022-10-06T23:21:21.528Z,102626.78
2022-10-06T23:23:51.472Z,102620.59
2022-10-06T23:26:34.917Z,102627.72
2022-10-06T23:29:04.163Z,102627.72
2022-10-06T23:31:31.970Z,102621.50
2022-10-06T23:33:59.674Z,102624.16
2022-10-06T23:36:27.349Z,102608.91
2022-10-06T23:38:55.692Z,102620.47
2022-10-06T23:41:23.414Z,102609.75
2022-10-06T23:43:52.496Z,102611.53
2022-10-06T23:46:20.166Z,102610.56
2022-10-06T23:48:47.976Z,102611.47
2022-10-06T23:51:16.403Z,102608.81
2022-10-06T23:53:44.262Z,102607.06
2022-10-06T23:56:12.565Z,102601.75
2022-10-06T23:58:41.627Z,102600.88
